sensor_id;sensor_type;location;lat;lon;timestamp;P1;durP1;ratioP1;P2;durP2;ratioP2
25191;SDS011;13143;50.924;5.320;2023-02-11T00:00:31;45.22;;;25.00;;
25191;SDS011;13143;50.924;5.320;2023-02-11T00:02:57;46.83;;;25.25;;
25191;SDS011;13143;50.924;5.320;2023-02-11T00:05:22;46.42;;;25.05;;
25191;SDS011;13143;50.924;5.320;2023-02-11T00:07:48;45.22;;;23.85;;
25191;SDS011;13143;50.924;5.320;2023-02-11T00:10:13;43.10;;;26.80;;
25191;SDS011;13143;50.924;5.320;2023-02-11T00:12:39;48.75;;;25.38;;
25191;SDS011;13143;50.924;5.320;2023-02-11T00:15:06;45.17;;;25.05;;
25191;SDS011;13143;50.924;5.320;2023-02-11T00:17:33;44.50;;;24.38;;
25191;SDS011;13143;50.924;5.320;2023-02-11T00:19:59;47.35;;;25.10;;
25191;SDS011;13143;50.924;5.320;2023-02-11T00:22:25;45.75;;;24.40;;
25191;SDS011;13143;50.924;5.320;2023-02-11T00:24:50;52.10;;;24.90;;
25191;SDS011;13143;50.924;5.320;2023-02-11T00:27:16;46.35;;;26.08;;
25191;SDS011;13143;50.924;5.320;2023-02-11T00:29:42;46.17;;;24.10;;
25191;SDS011;13143;50.924;5.320;2023-02-11T00:32:08;43.05;;;23.67;;
25191;SDS011;13143;50.924;5.320;2023-02-11T00:34:34;47.45;;;25.00;;
25191;SDS011;13143;50.924;5.320;2023-02-11T00:37:00;43.42;;;23.70;;
25191;SDS011;13143;50.924;5.320;2023-02-11T00:39:26;51.75;;;25.33;;
25191;SDS011;13143;50.924;5.320;2023-02-11T00:41:52;42.88;;;23.00;;
25191;SDS011;13143;50.924;5.320;2023-02-11T00:44:18;45.65;;;23.70;;
25191;SDS011;13143;50.924;5.320;2023-02-11T00:46:43;45.53;;;23.95;;
25191;SDS011;13143;50.924;5.320;2023-02-11T00:49:09;41.80;;;22.02;;
25191;SDS011;13143;50.924;5.320;2023-02-11T00:51:35;48.75;;;23.00;;
25191;SDS011;13143;50.924;5.320;2023-02-11T00:54:01;44.47;;;21.92;;
25191;SDS011;13143;50.924;5.320;2023-02-11T00:56:27;38.17;;;22.42;;
25191;SDS011;13143;50.924;5.320;2023-02-11T00:58:52;47.08;;;23.45;;
25191;SDS011;13143;50.924;5.320;2023-02-11T01:01:18;39.80;;;21.33;;
25191;SDS011;13143;50.924;5.320;2023-02-11T01:03:44;50.60;;;20.88;;
25191;SDS011;13143;50.924;5.320;2023-02-11T01:06:10;40.33;;;20.88;;
25191;SDS011;13143;50.924;5.320;2023-02-11T01:08:36;44.08;;;20.63;;
25191;SDS011;13143;50.924;5.320;2023-02-11T01:11:03;43.80;;;21.52;;
25191;SDS011;13143;50.924;5.320;2023-02-11T01:13:32;45.13;;;21.75;;
25191;SDS011;13143;50.924;5.320;2023-02-11T01:16:01;45.47;;;21.38;;
25191;SDS011;13143;50.924;5.320;2023-02-11T01:18:27;42.10;;;21.65;;
25191;SDS011;13143;50.924;5.320;2023-02-11T01:20:53;43.83;;;21.45;;
25191;SDS011;13143;50.924;5.320;2023-02-11T01:23:19;39.97;;;21.58;;
25191;SDS011;13143;50.924;5.320;2023-02-11T01:25:45;39.55;;;20.48;;
25191;SDS011;13143;50.924;5.320;2023-02-11T01:28:22;40.40;;;21.25;;
25191;SDS011;13143;50.924;5.320;2023-02-11T01:30:49;45.97;;;22.40;;
25191;SDS011;13143;50.924;5.320;2023-02-11T01:33:15;44.75;;;20.95;;
25191;SDS011;13143;50.924;5.320;2023-02-11T01:35:41;42.05;;;20.02;;
25191;SDS011;13143;50.924;5.320;2023-02-11T01:38:08;43.03;;;20.67;;
25191;SDS011;13143;50.924;5.320;2023-02-11T01:40:45;41.00;;;20.73;;
25191;SDS011;13143;50.924;5.320;2023-02-11T01:43:17;43.05;;;21.27;;
25191;SDS011;13143;50.924;5.320;2023-02-11T01:48:10;35.30;;;20.00;;
25191;SDS011;13143;50.924;5.320;2023-02-11T01:50:38;39.45;;;19.23;;
25191;SDS011;13143;50.924;5.320;2023-02-11T01:53:06;35.10;;;18.92;;
25191;SDS011;13143;50.924;5.320;2023-02-11T01:55:52;45.35;;;19.45;;
25191;SDS011;13143;50.924;5.320;2023-02-11T01:58:40;37.13;;;18.83;;
25191;SDS011;13143;50.924;5.320;2023-02-11T02:01:09;36.22;;;19.15;;
25191;SDS011;13143;50.924;5.320;2023-02-11T02:03:38;38.80;;;17.77;;
25191;SDS011;13143;50.924;5.320;2023-02-11T02:06:15;37.15;;;18.63;;
25191;SDS011;13143;50.924;5.320;2023-02-11T02:08:50;35.97;;;18.50;;
25191;SDS011;13143;50.924;5.320;2023-02-11T02:11:21;33.55;;;17.40;;
25191;SDS011;13143;50.924;5.320;2023-02-11T02:13:47;34.00;;;17.52;;
25191;SDS011;13143;50.924;5.320;2023-02-11T02:16:14;36.60;;;17.48;;
25191;SDS011;13143;50.924;5.320;2023-02-11T02:38:16;40.97;;;16.67;;
25191;SDS011;13143;50.924;5.320;2023-02-11T02:40:48;29.02;;;16.33;;
25191;SDS011;13143;50.924;5.320;2023-02-11T02:43:21;34.20;;;16.35;;
25191;SDS011;13143;50.924;5.320;2023-02-11T02:45:50;29.60;;;16.27;;
25191;SDS011;13143;50.924;5.320;2023-02-11T02:48:25;31.73;;;15.98;;
25191;SDS011;13143;50.924;5.320;2023-02-11T02:51:00;37.05;;;15.90;;
25191;SDS011;13143;50.924;5.320;2023-02-11T02:56:40;32.35;;;14.95;;
25191;SDS011;13143;50.924;5.320;2023-02-11T03:02:08;35.25;;;16.17;;
25191;SDS011;13143;50.924;5.320;2023-02-11T03:07:26;31.15;;;14.52;;
25191;SDS011;13143;50.924;5.320;2023-02-11T03:10:09;30.73;;;15.57;;
25191;SDS011;13143;50.924;5.320;2023-02-11T03:12:47;30.70;;;15.25;;
25191;SDS011;13143;50.924;5.320;2023-02-11T03:15:14;36.95;;;15.90;;
25191;SDS011;13143;50.924;5.320;2023-02-11T03:17:44;32.55;;;15.35;;
25191;SDS011;13143;50.924;5.320;2023-02-11T03:20:12;37.95;;;14.95;;
25191;SDS011;13143;50.924;5.320;2023-02-11T03:23:04;35.90;;;15.45;;
25191;SDS011;13143;50.924;5.320;2023-02-11T03:25:37;45.30;;;15.43;;
25191;SDS011;13143;50.924;5.320;2023-02-11T03:28:21;33.63;;;15.57;;
25191;SDS011;13143;50.924;5.320;2023-02-11T03:30:56;38.50;;;14.63;;
25191;SDS011;13143;50.924;5.320;2023-02-11T03:33:31;34.67;;;14.52;;
25191;SDS011;13143;50.924;5.320;2023-02-11T03:36:03;35.17;;;14.45;;
25191;SDS011;13143;50.924;5.320;2023-02-11T03:38:42;33.10;;;14.15;;
25191;SDS011;13143;50.924;5.320;2023-02-11T03:41:11;33.90;;;14.05;;
25191;SDS011;13143;50.924;5.320;2023-02-11T03:43:44;33.47;;;15.30;;
25191;SDS011;13143;50.924;5.320;2023-02-11T03:46:14;31.73;;;13.68;;
25191;SDS011;13143;50.924;5.320;2023-02-11T03:48:44;36.22;;;13.80;;
25191;SDS011;13143;50.924;5.320;2023-02-11T03:51:13;29.75;;;14.20;;
25191;SDS011;13143;50.924;5.320;2023-02-11T03:53:41;33.00;;;13.93;;
25191;SDS011;13143;50.924;5.320;2023-02-11T03:56:10;33.58;;;14.30;;
25191;SDS011;13143;50.924;5.320;2023-02-11T03:58:39;32.85;;;14.63;;
25191;SDS011;13143;50.924;5.320;2023-02-11T04:01:05;29.88;;;14.15;;
25191;SDS011;13143;50.924;5.320;2023-02-11T04:03:33;32.08;;;13.60;;
25191;SDS011;13143;50.924;5.320;2023-02-11T04:05:59;33.10;;;14.90;;
25191;SDS011;13143;50.924;5.320;2023-02-11T04:08:25;33.53;;;14.48;;
25191;SDS011;13143;50.924;5.320;2023-02-11T04:10:50;35.03;;;14.63;;
25191;SDS011;13143;50.924;5.320;2023-02-11T04:13:16;28.63;;;13.57;;
25191;SDS011;13143;50.924;5.320;2023-02-11T04:15:42;32.83;;;14.25;;
25191;SDS011;13143;50.924;5.320;2023-02-11T04:18:07;33.00;;;14.63;;
25191;SDS011;13143;50.924;5.320;2023-02-11T04:20:33;29.15;;;14.30;;
25191;SDS011;13143;50.924;5.320;2023-02-11T04:22:58;34.10;;;13.90;;
25191;SDS011;13143;50.924;5.320;2023-02-11T04:25:24;33.67;;;13.90;;
25191;SDS011;13143;50.924;5.320;2023-02-11T04:27:50;31.35;;;14.35;;
25191;SDS011;13143;50.924;5.320;2023-02-11T04:30:16;35.28;;;14.30;;
25191;SDS011;13143;50.924;5.320;2023-02-11T04:32:41;36.20;;;14.35;;
25191;SDS011;13143;50.924;5.320;2023-02-11T04:35:07;40.28;;;14.88;;
25191;SDS011;13143;50.924;5.320;2023-02-11T04:37:33;30.60;;;13.90;;
25191;SDS011;13143;50.924;5.320;2023-02-11T04:39:59;33.08;;;14.82;;
25191;SDS011;13143;50.924;5.320;2023-02-11T04:42:25;32.88;;;15.18;;
25191;SDS011;13143;50.924;5.320;2023-02-11T04:44:51;32.47;;;15.07;;
25191;SDS011;13143;50.924;5.320;2023-02-11T04:47:16;34.58;;;15.43;;
25191;SDS011;13143;50.924;5.320;2023-02-11T04:49:42;36.08;;;15.93;;
25191;SDS011;13143;50.924;5.320;2023-02-11T04:52:08;38.42;;;15.75;;
25191;SDS011;13143;50.924;5.320;2023-02-11T04:54:33;35.92;;;15.20;;
25191;SDS011;13143;50.924;5.320;2023-02-11T04:56:59;36.75;;;15.70;;
25191;SDS011;13143;50.924;5.320;2023-02-11T04:59:25;29.55;;;15.00;;
25191;SDS011;13143;50.924;5.320;2023-02-11T05:01:51;34.75;;;17.02;;
25191;SDS011;13143;50.924;5.320;2023-02-11T05:04:17;38.15;;;15.68;;
25191;SDS011;13143;50.924;5.320;2023-02-11T05:06:42;38.28;;;16.58;;
25191;SDS011;13143;50.924;5.320;2023-02-11T05:09:09;44.95;;;17.25;;
25191;SDS011;13143;50.924;5.320;2023-02-11T05:11:37;33.80;;;16.00;;
25191;SDS011;13143;50.924;5.320;2023-02-11T05:14:03;35.03;;;16.95;;
25191;SDS011;13143;50.924;5.320;2023-02-11T05:16:30;33.92;;;16.60;;
25191;SDS011;13143;50.924;5.320;2023-02-11T05:18:56;40.03;;;18.23;;
25191;SDS011;13143;50.924;5.320;2023-02-11T05:21:22;42.40;;;17.30;;
25191;SDS011;13143;50.924;5.320;2023-02-11T05:23:48;39.67;;;17.65;;
25191;SDS011;13143;50.924;5.320;2023-02-11T05:26:15;37.13;;;17.73;;
25191;SDS011;13143;50.924;5.320;2023-02-11T05:28:41;35.85;;;19.00;;
25191;SDS011;13143;50.924;5.320;2023-02-11T05:31:07;37.08;;;18.50;;
25191;SDS011;13143;50.924;5.320;2023-02-11T05:33:33;39.58;;;18.77;;
25191;SDS011;13143;50.924;5.320;2023-02-11T05:36:03;38.83;;;18.85;;
25191;SDS011;13143;50.924;5.320;2023-02-11T05:38:31;43.20;;;18.73;;
25191;SDS011;13143;50.924;5.320;2023-02-11T05:40:57;41.63;;;19.45;;
25191;SDS011;13143;50.924;5.320;2023-02-11T05:43:23;48.88;;;19.40;;
25191;SDS011;13143;50.924;5.320;2023-02-11T05:45:48;42.80;;;20.50;;
25191;SDS011;13143;50.924;5.320;2023-02-11T05:48:14;41.33;;;19.73;;
25191;SDS011;13143;50.924;5.320;2023-02-11T05:50:40;37.97;;;19.67;;
25191;SDS011;13143;50.924;5.320;2023-02-11T05:53:06;41.88;;;20.35;;
25191;SDS011;13143;50.924;5.320;2023-02-11T05:55:32;48.97;;;21.45;;
25191;SDS011;13143;50.924;5.320;2023-02-11T05:57:58;37.35;;;19.30;;
25191;SDS011;13143;50.924;5.320;2023-02-11T06:00:24;48.65;;;21.08;;
25191;SDS011;13143;50.924;5.320;2023-02-11T06:02:50;44.42;;;20.17;;
25191;SDS011;13143;50.924;5.320;2023-02-11T06:05:15;47.58;;;21.25;;
25191;SDS011;13143;50.924;5.320;2023-02-11T06:07:41;47.15;;;21.23;;
25191;SDS011;13143;50.924;5.320;2023-02-11T06:10:07;46.13;;;20.95;;
25191;SDS011;13143;50.924;5.320;2023-02-11T06:12:33;42.20;;;21.45;;
25191;SDS011;13143;50.924;5.320;2023-02-11T06:15:00;45.47;;;21.33;;
25191;SDS011;13143;50.924;5.320;2023-02-11T06:17:26;49.65;;;21.42;;
25191;SDS011;13143;50.924;5.320;2023-02-11T06:19:55;53.00;;;21.77;;
25191;SDS011;13143;50.924;5.320;2023-02-11T06:22:21;54.25;;;22.45;;
25191;SDS011;13143;50.924;5.320;2023-02-11T06:24:46;49.38;;;22.63;;
25191;SDS011;13143;50.924;5.320;2023-02-11T06:27:12;46.42;;;22.75;;
25191;SDS011;13143;50.924;5.320;2023-02-11T06:29:38;41.58;;;21.83;;
25191;SDS011;13143;50.924;5.320;2023-02-11T06:32:03;47.92;;;24.02;;
25191;SDS011;13143;50.924;5.320;2023-02-11T06:34:29;49.88;;;23.42;;
25191;SDS011;13143;50.924;5.320;2023-02-11T06:36:55;46.72;;;24.23;;
25191;SDS011;13143;50.924;5.320;2023-02-11T06:39:20;40.38;;;22.20;;
25191;SDS011;13143;50.924;5.320;2023-02-11T06:41:46;51.25;;;25.48;;
25191;SDS011;13143;50.924;5.320;2023-02-11T06:44:12;50.30;;;24.23;;
25191;SDS011;13143;50.924;5.320;2023-02-11T06:46:37;49.25;;;24.05;;
25191;SDS011;13143;50.924;5.320;2023-02-11T06:49:03;56.40;;;25.45;;
25191;SDS011;13143;50.924;5.320;2023-02-11T06:51:29;50.10;;;25.48;;
25191;SDS011;13143;50.924;5.320;2023-02-11T06:53:54;48.30;;;24.60;;
25191;SDS011;13143;50.924;5.320;2023-02-11T06:56:21;52.95;;;25.88;;
25191;SDS011;13143;50.924;5.320;2023-02-11T06:58:50;54.83;;;25.02;;
25191;SDS011;13143;50.924;5.320;2023-02-11T07:01:18;53.58;;;26.98;;
25191;SDS011;13143;50.924;5.320;2023-02-11T07:03:44;52.30;;;26.08;;
25191;SDS011;13143;50.924;5.320;2023-02-11T07:06:14;55.67;;;25.70;;
25191;SDS011;13143;50.924;5.320;2023-02-11T07:08:44;53.40;;;26.23;;
25191;SDS011;13143;50.924;5.320;2023-02-11T07:11:12;58.47;;;27.50;;
25191;SDS011;13143;50.924;5.320;2023-02-11T07:13:39;57.70;;;27.45;;
25191;SDS011;13143;50.924;5.320;2023-02-11T07:16:06;67.35;;;28.83;;
25191;SDS011;13143;50.924;5.320;2023-02-11T07:18:33;60.65;;;27.67;;
25191;SDS011;13143;50.924;5.320;2023-02-11T07:20:58;57.90;;;28.77;;
25191;SDS011;13143;50.924;5.320;2023-02-11T07:23:27;65.03;;;29.17;;
25191;SDS011;13143;50.924;5.320;2023-02-11T07:25:53;57.78;;;29.70;;
25191;SDS011;13143;50.924;5.320;2023-02-11T07:28:18;55.90;;;28.95;;
25191;SDS011;13143;50.924;5.320;2023-02-11T07:30:44;65.93;;;29.92;;
25191;SDS011;13143;50.924;5.320;2023-02-11T07:33:10;58.72;;;28.13;;
25191;SDS011;13143;50.924;5.320;2023-02-11T07:35:35;57.20;;;29.05;;
25191;SDS011;13143;50.924;5.320;2023-02-11T07:38:01;64.18;;;31.52;;
25191;SDS011;13143;50.924;5.320;2023-02-11T07:40:26;60.30;;;31.55;;
25191;SDS011;13143;50.924;5.320;2023-02-11T07:42:53;79.95;;;31.58;;
25191;SDS011;13143;50.924;5.320;2023-02-11T07:45:18;61.60;;;30.83;;
25191;SDS011;13143;50.924;5.320;2023-02-11T07:47:44;78.20;;;33.63;;
25191;SDS011;13143;50.924;5.320;2023-02-11T07:50:10;71.53;;;32.30;;
25191;SDS011;13143;50.924;5.320;2023-02-11T07:52:36;66.68;;;32.50;;
25191;SDS011;13143;50.924;5.320;2023-02-11T07:55:01;72.75;;;33.63;;
25191;SDS011;13143;50.924;5.320;2023-02-11T07:57:27;68.18;;;33.72;;
25191;SDS011;13143;50.924;5.320;2023-02-11T07:59:53;69.47;;;33.08;;
25191;SDS011;13143;50.924;5.320;2023-02-11T08:02:18;77.80;;;33.65;;
25191;SDS011;13143;50.924;5.320;2023-02-11T08:04:44;81.82;;;33.78;;
25191;SDS011;13143;50.924;5.320;2023-02-11T08:07:13;78.13;;;33.63;;
25191;SDS011;13143;50.924;5.320;2023-02-11T08:09:40;73.85;;;34.17;;
25191;SDS011;13143;50.924;5.320;2023-02-11T08:12:06;76.70;;;33.83;;
25191;SDS011;13143;50.924;5.320;2023-02-11T08:14:31;76.43;;;35.28;;
25191;SDS011;13143;50.924;5.320;2023-02-11T08:16:57;76.97;;;35.30;;
25191;SDS011;13143;50.924;5.320;2023-02-11T08:19:23;77.18;;;35.83;;
25191;SDS011;13143;50.924;5.320;2023-02-11T08:21:48;71.88;;;33.92;;
25191;SDS011;13143;50.924;5.320;2023-02-11T08:24:14;74.88;;;36.25;;
25191;SDS011;13143;50.924;5.320;2023-02-11T08:26:40;79.18;;;35.70;;
25191;SDS011;13143;50.924;5.320;2023-02-11T08:29:07;81.78;;;36.25;;
25191;SDS011;13143;50.924;5.320;2023-02-11T08:31:35;71.00;;;35.60;;
25191;SDS011;13143;50.924;5.320;2023-02-11T08:34:03;80.82;;;35.78;;
25191;SDS011;13143;50.924;5.320;2023-02-11T08:36:33;83.65;;;35.78;;
25191;SDS011;13143;50.924;5.320;2023-02-11T08:39:01;83.82;;;37.13;;
25191;SDS011;13143;50.924;5.320;2023-02-11T08:41:32;87.60;;;37.10;;
25191;SDS011;13143;50.924;5.320;2023-02-11T08:43:59;83.53;;;36.45;;
25191;SDS011;13143;50.924;5.320;2023-02-11T08:46:25;80.03;;;36.85;;
25191;SDS011;13143;50.924;5.320;2023-02-11T08:48:51;80.07;;;35.88;;
25191;SDS011;13143;50.924;5.320;2023-02-11T08:51:22;81.82;;;39.47;;
25191;SDS011;13143;50.924;5.320;2023-02-11T08:53:51;80.45;;;38.72;;
25191;SDS011;13143;50.924;5.320;2023-02-11T08:56:18;86.82;;;38.60;;
25191;SDS011;13143;50.924;5.320;2023-02-11T08:58:44;83.70;;;39.20;;
25191;SDS011;13143;50.924;5.320;2023-02-11T09:01:29;85.13;;;38.95;;
25191;SDS011;13143;50.924;5.320;2023-02-11T09:03:56;97.72;;;39.92;;
25191;SDS011;13143;50.924;5.320;2023-02-11T09:06:23;82.70;;;38.78;;
25191;SDS011;13143;50.924;5.320;2023-02-11T09:08:51;87.50;;;38.53;;
25191;SDS011;13143;50.924;5.320;2023-02-11T09:11:24;87.57;;;40.17;;
25191;SDS011;13143;50.924;5.320;2023-02-11T09:13:52;89.82;;;41.35;;
25191;SDS011;13143;50.924;5.320;2023-02-11T09:16:25;82.35;;;40.10;;
25191;SDS011;13143;50.924;5.320;2023-02-11T09:18:54;93.63;;;41.58;;
25191;SDS011;13143;50.924;5.320;2023-02-11T09:21:21;86.70;;;39.40;;
25191;SDS011;13143;50.924;5.320;2023-02-11T09:23:47;83.75;;;39.00;;
25191;SDS011;13143;50.924;5.320;2023-02-11T09:26:15;81.70;;;40.78;;
25191;SDS011;13143;50.924;5.320;2023-02-11T09:28:40;87.60;;;38.50;;
25191;SDS011;13143;50.924;5.320;2023-02-11T09:31:07;90.00;;;38.88;;
25191;SDS011;13143;50.924;5.320;2023-02-11T09:33:34;96.90;;;41.47;;
25191;SDS011;13143;50.924;5.320;2023-02-11T09:36:05;93.53;;;40.72;;
25191;SDS011;13143;50.924;5.320;2023-02-11T09:38:31;94.80;;;40.30;;
25191;SDS011;13143;50.924;5.320;2023-02-11T09:40:57;86.65;;;42.00;;
25191;SDS011;13143;50.924;5.320;2023-02-11T09:43:28;101.55;;;41.42;;
25191;SDS011;13143;50.924;5.320;2023-02-11T09:46:00;93.43;;;38.80;;
25191;SDS011;13143;50.924;5.320;2023-02-11T09:48:26;86.70;;;39.70;;
25191;SDS011;13143;50.924;5.320;2023-02-11T09:50:59;91.90;;;41.38;;
25191;SDS011;13143;50.924;5.320;2023-02-11T09:53:28;96.15;;;41.60;;
25191;SDS011;13143;50.924;5.320;2023-02-11T09:56:00;92.53;;;40.13;;
25191;SDS011;13143;50.924;5.320;2023-02-11T09:58:39;94.85;;;41.53;;
25191;SDS011;13143;50.924;5.320;2023-02-11T10:07:42;102.65;;;42.05;;
25191;SDS011;13143;50.924;5.320;2023-02-11T10:20:56;98.72;;;43.63;;
25191;SDS011;13143;50.924;5.320;2023-02-11T10:23:39;99.68;;;43.58;;
25191;SDS011;13143;50.924;5.320;2023-02-11T10:26:13;101.15;;;42.83;;
25191;SDS011;13143;50.924;5.320;2023-02-11T10:28:42;98.70;;;43.08;;
25191;SDS011;13143;50.924;5.320;2023-02-11T10:31:12;99.68;;;41.47;;
25191;SDS011;13143;50.924;5.320;2023-02-11T10:36:10;101.78;;;44.80;;
25191;SDS011;13143;50.924;5.320;2023-02-11T10:38:37;100.90;;;43.25;;
25191;SDS011;13143;50.924;5.320;2023-02-11T10:41:03;102.40;;;45.20;;
25191;SDS011;13143;50.924;5.320;2023-02-11T10:43:30;111.38;;;44.67;;
25191;SDS011;13143;50.924;5.320;2023-02-11T10:45:57;101.80;;;44.50;;
25191;SDS011;13143;50.924;5.320;2023-02-11T10:48:46;107.10;;;44.22;;
25191;SDS011;13143;50.924;5.320;2023-02-11T10:51:21;100.18;;;43.10;;
25191;SDS011;13143;50.924;5.320;2023-02-11T10:53:50;101.60;;;44.83;;
25191;SDS011;13143;50.924;5.320;2023-02-11T10:56:30;109.03;;;45.63;;
25191;SDS011;13143;50.924;5.320;2023-02-11T10:59:01;107.30;;;45.35;;
25191;SDS011;13143;50.924;5.320;2023-02-11T11:01:56;119.88;;;45.53;;
25191;SDS011;13143;50.924;5.320;2023-02-11T11:04:42;106.93;;;45.00;;
25191;SDS011;13143;50.924;5.320;2023-02-11T11:07:13;94.93;;;44.05;;
25191;SDS011;13143;50.924;5.320;2023-02-11T11:12:47;109.55;;;47.50;;
25191;SDS011;13143;50.924;5.320;2023-02-11T11:15:17;120.47;;;46.83;;
25191;SDS011;13143;50.924;5.320;2023-02-11T11:17:46;112.03;;;48.40;;
25191;SDS011;13143;50.924;5.320;2023-02-11T11:20:26;115.35;;;48.13;;
25191;SDS011;13143;50.924;5.320;2023-02-11T11:25:42;120.53;;;47.20;;
25191;SDS011;13143;50.924;5.320;2023-02-11T11:28:24;113.07;;;47.57;;
25191;SDS011;13143;50.924;5.320;2023-02-11T11:30:52;112.47;;;48.03;;
25191;SDS011;13143;50.924;5.320;2023-02-11T11:33:25;114.18;;;47.28;;
25191;SDS011;13143;50.924;5.320;2023-02-11T11:36:03;116.35;;;46.67;;
25191;SDS011;13143;50.924;5.320;2023-02-11T11:38:32;107.60;;;46.10;;
25191;SDS011;13143;50.924;5.320;2023-02-11T11:46:41;109.55;;;46.42;;
25191;SDS011;13143;50.924;5.320;2023-02-11T11:51:42;112.07;;;48.53;;
25191;SDS011;13143;50.924;5.320;2023-02-11T11:54:15;128.63;;;47.88;;
25191;SDS011;13143;50.924;5.320;2023-02-11T11:56:55;127.03;;;49.13;;
25191;SDS011;13143;50.924;5.320;2023-02-11T11:59:29;122.18;;;49.05;;
25191;SDS011;13143;50.924;5.320;2023-02-11T12:12:56;120.00;;;47.92;;
25191;SDS011;13143;50.924;5.320;2023-02-11T12:21:32;116.30;;;47.63;;
25191;SDS011;13143;50.924;5.320;2023-02-11T12:30:02;113.18;;;45.90;;
25191;SDS011;13143;50.924;5.320;2023-02-11T12:38:42;104.53;;;47.92;;
25191;SDS011;13143;50.924;5.320;2023-02-11T12:41:48;103.65;;;47.13;;
25191;SDS011;13143;50.924;5.320;2023-02-11T12:52:38;106.03;;;45.30;;
25191;SDS011;13143;50.924;5.320;2023-02-11T12:55:20;101.32;;;44.20;;
25191;SDS011;13143;50.924;5.320;2023-02-11T12:57:49;106.55;;;46.47;;
25191;SDS011;13143;50.924;5.320;2023-02-11T13:00:23;108.20;;;47.33;;
25191;SDS011;13143;50.924;5.320;2023-02-11T13:05:25;97.43;;;44.10;;
25191;SDS011;13143;50.924;5.320;2023-02-11T13:08:03;107.40;;;45.88;;
25191;SDS011;13143;50.924;5.320;2023-02-11T13:13:01;108.60;;;46.13;;
25191;SDS011;13143;50.924;5.320;2023-02-11T13:15:50;110.57;;;44.67;;
25191;SDS011;13143;50.924;5.320;2023-02-11T13:23:43;108.97;;;44.30;;
25191;SDS011;13143;50.924;5.320;2023-02-11T13:26:18;101.43;;;44.17;;
25191;SDS011;13143;50.924;5.320;2023-02-11T13:31:35;108.20;;;44.65;;
25191;SDS011;13143;50.924;5.320;2023-02-11T13:34:01;98.15;;;43.17;;
25191;SDS011;13143;50.924;5.320;2023-02-11T13:36:27;97.38;;;43.40;;
25191;SDS011;13143;50.924;5.320;2023-02-11T13:39:03;101.15;;;44.35;;
25191;SDS011;13143;50.924;5.320;2023-02-11T13:44:12;91.43;;;41.25;;
25191;SDS011;13143;50.924;5.320;2023-02-11T13:46:56;96.82;;;43.53;;
25191;SDS011;13143;50.924;5.320;2023-02-11T13:49:33;96.00;;;43.03;;
25191;SDS011;13143;50.924;5.320;2023-02-11T13:52:05;104.32;;;42.97;;
25191;SDS011;13143;50.924;5.320;2023-02-11T13:54:48;91.17;;;42.17;;
25191;SDS011;13143;50.924;5.320;2023-02-11T13:57:20;94.03;;;43.30;;
25191;SDS011;13143;50.924;5.320;2023-02-11T13:59:59;92.55;;;42.92;;
25191;SDS011;13143;50.924;5.320;2023-02-11T14:02:32;98.28;;;43.55;;
25191;SDS011;13143;50.924;5.320;2023-02-11T14:05:25;102.00;;;43.22;;
25191;SDS011;13143;50.924;5.320;2023-02-11T14:08:22;89.45;;;42.40;;
25191;SDS011;13143;50.924;5.320;2023-02-11T14:21:12;98.60;;;45.85;;
25191;SDS011;13143;50.924;5.320;2023-02-11T14:29:18;95.65;;;43.08;;
25191;SDS011;13143;50.924;5.320;2023-02-11T14:31:58;95.10;;;44.22;;
25191;SDS011;13143;50.924;5.320;2023-02-11T14:37:35;97.82;;;46.28;;
25191;SDS011;13143;50.924;5.320;2023-02-11T14:40:45;99.47;;;45.33;;
25191;SDS011;13143;50.924;5.320;2023-02-11T14:43:12;89.28;;;43.28;;
25191;SDS011;13143;50.924;5.320;2023-02-11T14:45:44;92.05;;;42.80;;
25191;SDS011;13143;50.924;5.320;2023-02-11T14:48:15;100.22;;;43.75;;
25191;SDS011;13143;50.924;5.320;2023-02-11T14:53:22;101.93;;;45.83;;
25191;SDS011;13143;50.924;5.320;2023-02-11T14:55:50;92.80;;;43.80;;
25191;SDS011;13143;50.924;5.320;2023-02-11T14:58:19;101.13;;;44.00;;
25191;SDS011;13143;50.924;5.320;2023-02-11T15:00:47;96.57;;;43.65;;
25191;SDS011;13143;50.924;5.320;2023-02-11T15:05:54;92.53;;;42.75;;
25191;SDS011;13143;50.924;5.320;2023-02-11T15:08:21;91.13;;;44.08;;
25191;SDS011;13143;50.924;5.320;2023-02-11T15:10:47;91.65;;;42.75;;
25191;SDS011;13143;50.924;5.320;2023-02-11T15:13:18;94.65;;;43.15;;
25191;SDS011;13143;50.924;5.320;2023-02-11T15:15:53;93.30;;;44.40;;
25191;SDS011;13143;50.924;5.320;2023-02-11T15:18:22;92.18;;;42.55;;
25191;SDS011;13143;50.924;5.320;2023-02-11T15:20:56;92.95;;;43.05;;
25191;SDS011;13143;50.924;5.320;2023-02-11T15:23:23;91.65;;;43.20;;
25191;SDS011;13143;50.924;5.320;2023-02-11T15:25:51;93.25;;;43.35;;
25191;SDS011;13143;50.924;5.320;2023-02-11T15:28:24;92.40;;;43.20;;
25191;SDS011;13143;50.924;5.320;2023-02-11T15:30:56;97.07;;;44.42;;
25191;SDS011;13143;50.924;5.320;2023-02-11T15:33:24;92.65;;;43.13;;
25191;SDS011;13143;50.924;5.320;2023-02-11T15:35:53;92.07;;;42.35;;
25191;SDS011;13143;50.924;5.320;2023-02-11T15:38:20;95.20;;;43.08;;
25191;SDS011;13143;50.924;5.320;2023-02-11T15:40:53;94.90;;;46.55;;
25191;SDS011;13143;50.924;5.320;2023-02-11T15:43:39;91.05;;;43.30;;
25191;SDS011;13143;50.924;5.320;2023-02-11T15:46:06;90.95;;;43.15;;
25191;SDS011;13143;50.924;5.320;2023-02-11T15:48:34;97.70;;;45.53;;
25191;SDS011;13143;50.924;5.320;2023-02-11T15:51:06;97.82;;;45.58;;
25191;SDS011;13143;50.924;5.320;2023-02-11T15:53:37;96.78;;;44.55;;
25191;SDS011;13143;50.924;5.320;2023-02-11T15:58:39;91.60;;;44.92;;
25191;SDS011;13143;50.924;5.320;2023-02-11T16:01:07;94.65;;;44.20;;
25191;SDS011;13143;50.924;5.320;2023-02-11T16:03:33;97.32;;;45.55;;
25191;SDS011;13143;50.924;5.320;2023-02-11T16:08:42;108.35;;;50.13;;
25191;SDS011;13143;50.924;5.320;2023-02-11T16:13:56;105.43;;;48.95;;
25191;SDS011;13143;50.924;5.320;2023-02-11T16:16:29;91.90;;;45.47;;
25191;SDS011;13143;50.924;5.320;2023-02-11T16:18:58;94.30;;;46.15;;
25191;SDS011;13143;50.924;5.320;2023-02-11T16:21:30;92.22;;;44.05;;
25191;SDS011;13143;50.924;5.320;2023-02-11T16:24:03;98.97;;;45.72;;
25191;SDS011;13143;50.924;5.320;2023-02-11T16:26:32;97.20;;;46.13;;
25191;SDS011;13143;50.924;5.320;2023-02-11T16:31:36;92.82;;;44.97;;
25191;SDS011;13143;50.924;5.320;2023-02-11T16:34:11;95.32;;;45.60;;
25191;SDS011;13143;50.924;5.320;2023-02-11T16:36:38;89.80;;;41.80;;
25191;SDS011;13143;50.924;5.320;2023-02-11T16:39:04;95.85;;;44.17;;
25191;SDS011;13143;50.924;5.320;2023-02-11T16:41:29;90.20;;;43.10;;
25191;SDS011;13143;50.924;5.320;2023-02-11T16:43:55;87.40;;;44.22;;
25191;SDS011;13143;50.924;5.320;2023-02-11T16:46:22;91.03;;;42.63;;
25191;SDS011;13143;50.924;5.320;2023-02-11T16:48:48;87.13;;;44.05;;
25191;SDS011;13143;50.924;5.320;2023-02-11T16:51:14;93.10;;;45.03;;
25191;SDS011;13143;50.924;5.320;2023-02-11T16:53:39;94.50;;;50.78;;
25191;SDS011;13143;50.924;5.320;2023-02-11T16:56:05;120.80;;;57.75;;
25191;SDS011;13143;50.924;5.320;2023-02-11T16:58:31;113.50;;;55.80;;
25191;SDS011;13143;50.924;5.320;2023-02-11T17:00:57;109.13;;;53.42;;
25191;SDS011;13143;50.924;5.320;2023-02-11T17:03:23;97.20;;;47.30;;